createdAt,value
2023-02-17T00:01:53.118Z,98693.38
2023-02-17T00:06:55.961Z,98692.16
2023-02-17T00:11:57.784Z,98697.22
2023-02-17T00:16:59.569Z,98704.91
2023-02-17T00:22:02.390Z,98696.22
2023-02-17T00:27:04.823Z,98696.22
2023-02-17T00:32:06.815Z,98698.13
2023-02-17T00:37:08.938Z,98685.81
2023-02-17T00:42:10.802Z,98684.69
2023-02-17T00:47:12.622Z,98689.22
2023-02-17T00:52:15.278Z,98679.94
2023-02-17T00:57:17.143Z,98672.16
2023-02-17T01:02:18.962Z,98672.03
2023-02-17T01:07:20.831Z,98666.63
2023-02-17T01:12:22.637Z,98672.16
2023-02-17T01:17:26.902Z,98660.63
2023-02-17T01:22:30.302Z,98652.59
2023-02-17T01:27:32.141Z,98656.63
2023-02-17T01:32:34.083Z,98667.72
2023-02-17T01:37:36.040Z,98637.88
2023-02-17T01:42:37.888Z,98631.75
2023-02-17T01:47:40.176Z,98631.97
2023-02-17T01:52:43.440Z,98631.72
2023-02-17T01:57:47.820Z,98627.19
2023-02-17T02:02:50.887Z,98612.94
2023-02-17T02:07:54.780Z,98609.88
2023-02-17T02:12:56.767Z,98597.09
2023-02-17T02:18:40.155Z,98593.69
2023-02-17T02:23:47.869Z,98590.88
2023-02-17T02:29:22.748Z,98572.69
2023-02-17T02:34:35.044Z,98559.53
2023-02-17T02:39:42.895Z,98547.22
2023-02-17T02:44:45.089Z,98548.03
2023-02-17T02:49:47.187Z,98544.16
2023-02-17T02:55:04.405Z,98535.13
2023-02-17T03:00:22.390Z,98534.59
2023-02-17T03:05:37.215Z,98532.84
2023-02-17T03:10:53.216Z,98525.84
2023-02-17T03:15:55.428Z,98524.97
2023-02-17T03:21:04.952Z,98523.09
2023-02-17T03:26:07.047Z,98525.56
2023-02-17T03:31:09.254Z,98507.94
2023-02-17T03:36:11.177Z,98511.25
2023-02-17T03:41:13.117Z,98497.78
2023-02-17T03:46:16.451Z,98507.13
2023-02-17T03:51:21.238Z,98510.88
2023-02-17T03:56:23.212Z,98510.34
2023-02-17T04:01:25.132Z,98507.16
2023-02-17T04:06:27.056Z,98504.69
2023-02-17T04:11:28.945Z,98519.06
2023-02-17T04:16:30.793Z,98513.53
2023-02-17T04:21:33.268Z,98503.28
2023-02-17T04:26:35.120Z,98512.22
2023-02-17T04:31:37.005Z,98498.91
2023-02-17T04:36:38.896Z,98497.22
2023-02-17T04:41:40.725Z,98492.84
2023-02-17T04:46:42.639Z,98484.59
2023-02-17T04:51:44.470Z,98483.81
2023-02-17T04:56:46.518Z,98481.56
2023-02-17T05:01:48.315Z,98479.31
2023-02-17T05:06:50.195Z,98474.78
2023-02-17T05:11:52.108Z,98476.47
2023-02-17T05:16:53.914Z,98469.31
2023-02-17T05:21:55.738Z,98469.41
2023-02-17T05:26:57.619Z,98460.28
2023-02-17T05:31:59.492Z,98447.97
2023-02-17T05:37:01.433Z,98461.69
2023-02-17T05:42:03.395Z,98460.09
2023-02-17T05:47:05.305Z,98467.78
2023-02-17T05:52:07.200Z,98460.34
2023-02-17T05:57:09.019Z,98441.81
2023-02-17T06:02:10.831Z,98440.00
2023-02-17T06:07:12.700Z,98426.47
2023-02-17T06:12:14.666Z,98441.13
2023-02-17T06:17:16.538Z,98435.84
2023-02-17T06:22:18.782Z,98440.09
2023-02-17T06:27:20.596Z,98428.66
2023-02-17T06:32:22.474Z,98432.00
2023-02-17T06:37:24.329Z,98432.22
2023-02-17T06:42:26.158Z,98445.53
2023-02-17T06:47:27.949Z,98456.13
2023-02-17T06:52:29.987Z,98449.28
2023-02-17T06:57:31.829Z,98448.28
2023-02-17T07:02:33.801Z,98448.38
2023-02-17T07:07:36.105Z,98439.88
2023-02-17T07:12:38.477Z,98440.66
2023-02-17T07:17:41.117Z,98443.03
2023-02-17T07:22:43.094Z,98443.38
2023-02-17T07:27:44.929Z,98443.38
2023-02-17T07:32:47.049Z,98434.88
2023-02-17T07:37:48.952Z,98441.47
2023-02-17T07:42:50.822Z,98435.25
2023-02-17T07:47:53.835Z,98427.09
2023-02-17T07:52:55.642Z,98423.72
2023-02-17T07:57:57.451Z,98420.31
2023-02-17T08:02:59.351Z,98414.44
2023-02-17T08:08:19.764Z,98429.56
2023-02-17T08:13:21.762Z,98429.22
2023-02-17T08:18:23.630Z,98438.31
2023-02-17T08:23:25.549Z,98437.63
2023-02-17T08:28:27.493Z,98430.38
2023-02-17T08:33:29.352Z,98428.97
2023-02-17T08:38:31.249Z,98429.94
2023-02-17T08:43:33.045Z,98423.91
2023-02-17T08:48:36.660Z,98423.22
2023-02-17T08:53:38.603Z,98423.28
2023-02-17T08:58:40.623Z,98420.38
2023-02-17T09:03:42.490Z,98399.19
2023-02-17T09:08:45.587Z,98382.31
2023-02-17T09:13:47.423Z,98386.78
2023-02-17T09:18:49.266Z,98375.34
2023-02-17T09:23:52.006Z,98363.38
2023-02-17T09:28:53.944Z,98380.81
2023-02-17T09:33:56.338Z,98371.00
2023-02-17T09:38:59.128Z,98345.25
2023-02-17T09:44:01.547Z,98355.53
2023-02-17T09:49:10.912Z,98342.00
2023-02-17T09:54:38.610Z,98345.19
2023-02-17T09:59:46.491Z,98319.66
2023-02-17T10:04:51.573Z,98326.66
2023-02-17T10:10:08.494Z,98320.50
2023-02-17T10:15:21.075Z,98325.16
2023-02-17T10:20:30.807Z,98319.59
2023-02-17T10:25:40.445Z,98326.53
2023-02-17T10:31:04.932Z,98312.53
2023-02-17T10:36:28.678Z,98274.56
2023-02-17T10:41:37.321Z,98248.34
2023-02-17T10:46:42.014Z,98253.56
2023-02-17T10:51:44.068Z,98245.59
2023-02-17T10:56:50.969Z,98224.72
2023-02-17T11:01:59.293Z,98218.97
2023-02-17T11:07:02.749Z,98217.91
2023-02-17T11:12:10.959Z,98204.81
2023-02-17T11:17:49.825Z,98194.75
2023-02-17T11:23:11.027Z,98194.66
2023-02-17T11:28:14.849Z,98174.38
2023-02-17T11:33:22.971Z,98156.13
2023-02-17T11:38:33.982Z,98157.66
2023-02-17T11:43:37.411Z,98155.75
2023-02-17T11:48:57.642Z,98153.78
2023-02-17T11:54:23.648Z,98144.09
2023-02-17T11:59:57.816Z,98136.75
2023-02-17T12:05:25.125Z,98124.34
2023-02-17T12:10:43.174Z,98130.22
2023-02-17T12:16:03.073Z,98124.13
2023-02-17T12:21:17.655Z,98108.66
2023-02-17T12:26:29.966Z,98089.22
2023-02-17T12:31:50.277Z,98093.94
2023-02-17T12:36:54.868Z,98086.16
2023-02-17T12:42:06.817Z,98089.00
2023-02-17T12:47:49.186Z,98060.69
2023-02-17T12:52:55.634Z,98064.69
2023-02-17T12:58:01.270Z,98045.28
2023-02-17T13:03:04.747Z,98030.56
2023-02-17T13:08:28.034Z,98015.84
2023-02-17T13:13:32.789Z,98024.06
2023-02-17T13:18:37.750Z,98013.22
2023-02-17T13:23:41.702Z,98038.53
2023-02-17T13:28:44.793Z,98011.28
2023-02-17T13:33:53.990Z,98002.72
2023-02-17T13:39:22.206Z,98008.56
2023-02-17T13:44:51.036Z,97993.38
2023-02-17T13:49:55.009Z,97976.25
2023-02-17T13:55:02.430Z,97972.34
2023-02-17T14:00:09.344Z,97962.63
2023-02-17T14:05:33.331Z,97961.47
2023-02-17T14:10:36.626Z,97973.19
2023-02-17T14:15:49.993Z,97952.56
2023-02-17T14:21:04.026Z,97971.66
2023-02-17T14:26:27.288Z,97930.31
2023-02-17T14:31:29.540Z,97968.50
2023-02-17T14:36:37.293Z,97956.03
2023-02-17T14:41:39.200Z,97906.19
2023-02-17T14:46:41.188Z,97935.41
2023-02-17T14:51:43.163Z,97910.47
2023-02-17T14:56:57.779Z,97919.41
2023-02-17T15:02:00.066Z,97939.69
2023-02-17T15:07:01.970Z,97956.03
2023-02-17T15:12:05.975Z,97936.56
2023-02-17T15:17:08.240Z,97923.31
2023-02-17T15:22:12.661Z,97908.50
2023-02-17T15:27:15.288Z,97920.16
2023-02-17T15:32:19.150Z,97919.41
2023-02-17T15:37:21.126Z,97968.09
2023-02-17T15:42:22.972Z,97969.25
2023-02-17T15:47:24.850Z,97972.34
2023-02-17T15:52:26.767Z,97963.34
2023-02-17T15:57:29.161Z,97958.28
2023-02-17T16:02:32.366Z,97965.31
2023-02-17T16:07:34.200Z,97965.28
2023-02-17T16:12:36.338Z,97963.72
2023-02-17T16:17:38.828Z,97952.03
2023-02-17T16:22:40.727Z,97948.09
2023-02-17T16:27:45.312Z,97923.56
2023-02-17T16:32:47.669Z,97968.69
2023-02-17T16:38:00.073Z,97954.69
2023-02-17T16:43:02.317Z,97965.97
2023-02-17T16:48:07.971Z,97948.06
2023-02-17T16:53:13.254Z,97954.34
2023-02-17T16:58:18.451Z,97940.34
2023-02-17T17:03:24.149Z,97931.75
2023-02-17T17:08:26.092Z,97949.66
2023-02-17T17:13:27.944Z,97941.84
2023-02-17T17:18:29.794Z,97936.41
2023-02-17T17:23:31.673Z,97960.53
2023-02-17T17:28:33.523Z,97958.22
2023-02-17T17:33:35.349Z,97966.81
2023-02-17T17:38:37.219Z,97976.97
2023-02-17T17:43:39.176Z,97986.75
2023-02-17T17:48:41.360Z,97989.91
2023-02-17T17:53:43.981Z,97983.72
2023-02-17T17:58:46.080Z,98004.75
2023-02-17T18:03:49.041Z,98007.13
2023-02-17T18:08:53.437Z,98016.09
2023-02-17T18:13:58.790Z,98009.47
2023-02-17T18:19:03.009Z,98020.38
2023-02-17T18:24:07.083Z,98029.34
2023-02-17T18:29:09.891Z,98037.16
2023-02-17T18:34:12.554Z,98026.25
2023-02-17T18:39:15.129Z,98048.03
2023-02-17T18:44:17.205Z,98073.72
2023-02-17T18:49:19.062Z,98086.88
2023-02-17T18:54:21.258Z,98099.97
2023-02-17T18:59:23.204Z,98095.81
2023-02-17T19:04:25.679Z,98110.84
2023-02-17T19:09:30.810Z,98132.81
2023-02-17T19:14:33.384Z,98135.00
2023-02-17T19:19:40.320Z,98136.75
2023-02-17T19:24:43.269Z,98135.81
2023-02-17T19:29:46.187Z,98190.50
2023-02-17T19:34:48.168Z,98140.19
2023-02-17T19:39:50.060Z,98157.56
2023-02-17T19:44:51.942Z,98117.84
2023-02-17T19:49:53.890Z,98122.94
2023-02-17T19:54:56.177Z,98153.63
2023-02-17T19:59:58.088Z,98138.19
2023-02-17T20:05:00.019Z,98137.44
2023-02-17T20:10:01.977Z,98147.66
2023-02-17T20:15:04.991Z,98166.34
2023-02-17T20:20:09.964Z,98166.34
2023-02-17T20:25:11.922Z,98160.56
2023-02-17T20:30:14.091Z,98157.50
2023-02-17T20:35:19.226Z,98162.22
2023-02-17T20:40:29.263Z,98155.56
2023-02-17T20:45:31.313Z,98158.72
2023-02-17T20:50:33.386Z,98161.00
2023-02-17T20:55:35.476Z,98148.53
2023-02-17T21:00:37.540Z,98165.63
2023-02-17T21:05:39.484Z,98171.78
2023-02-17T21:10:41.315Z,98171.75
2023-02-17T21:15:43.155Z,98177.91
2023-02-17T21:20:45.086Z,98174.69
2023-02-17T21:25:46.911Z,98169.19
2023-02-17T21:30:48.829Z,98178.16
2023-02-17T21:35:53.763Z,98183.13
2023-02-17T21:40:55.637Z,98193.47
2023-02-17T21:45:57.550Z,98212.47
2023-02-17T21:51:10.670Z,98246.78
2023-02-17T21:56:12.605Z,98255.69
2023-02-17T22:01:15.181Z,98256.38
2023-02-17T22:06:20.517Z,98276.94
2023-02-17T22:11:28.740Z,98291.72
2023-02-17T22:16:32.713Z,98296.47
2023-02-17T22:21:34.902Z,98314.47
2023-02-17T22:26:37.154Z,98329.19
2023-02-17T22:31:39.050Z,98334.28
2023-02-17T22:36:41.615Z,98329.75
2023-02-17T22:41:43.493Z,98352.34
2023-02-17T22:46:45.541Z,98355.66
2023-02-17T22:51:47.419Z,98376.88
2023-02-17T22:56:49.270Z,98351.25
2023-02-17T23:01:51.204Z,98366.41
2023-02-17T23:06:53.028Z,98375.16
2023-02-17T23:11:55.003Z,98388.13
2023-02-17T23:17:03.302Z,98386.44
2023-02-17T23:22:09.099Z,98389.06
2023-02-17T23:27:11.745Z,98397.22
2023-02-17T23:32:13.567Z,98387.50
2023-02-17T23:37:15.417Z,98394.50
2023-02-17T23:42:17.285Z,98407.00
2023-02-17T23:47:19.096Z,98406.31
2023-02-17T23:52:20.939Z,98415.69
2023-02-17T23:57:22.732Z,98406.09
